Time;durP1;ratioP1;P1;durP2;ratioP2;P2;SDS_P1;SDS_P2;PMS_P1;PMS_P2;Temp;Humidity;BMP_temperature;BMP_pressure;BME280_temperature;BME280_humidity;BME280_pressure;Samples;Min_cycle;Max_cycle;Signal;HPM_P1;HPM_P2
2022/05/12 00:02:10;;;;;;;19.35;14.18;;;;;;;;;;5014469;28;20152;-66
2022/05/12 00:04:39;;;;;;;19.25;13.27;;;;;;;;;;5014080;28;20045;-66
2022/05/12 00:07:06;;;;;;;16.73;12.52;;;;;;;;;;5013606;28;20049;-66
2022/05/12 00:09:33;;;;;;;17.70;11.43;;;;;;;;;;5014383;28;20435;-66
2022/05/12 00:12:00;;;;;;;18.27;11.65;;;;;;;;;;5014111;28;20046;-66
2022/05/12 00:14:28;;;;;;;16.02;11.77;;;;;;;;;;5014095;28;20050;-66
2022/05/12 00:16:56;;;;;;;19.85;13.25;;;;;;;;;;5013989;28;20046;-66
2022/05/12 00:19:26;;;;;;;18.55;12.93;;;;;;;;;;5014107;28;20053;-66
2022/05/12 00:21:54;;;;;;;15.98;12.50;;;;;;;;;;5013752;28;20061;-66
2022/05/12 00:24:22;;;;;;;16.73;12.43;;;;;;;;;;5014027;28;20046;-66
2022/05/12 00:26:49;;;;;;;19.92;14.05;;;;;;;;;;5014056;28;20050;-66
2022/05/12 00:29:16;;;;;;;22.50;14.50;;;;;;;;;;5013969;28;20050;-66
2022/05/12 00:31:45;;;;;;;22.75;15.38;;;;;;;;;;5013610;28;20400;-66
2022/05/12 00:34:13;;;;;;;22.65;15.35;;;;;;;;;;5013762;28;20042;-66
2022/05/12 00:36:40;;;;;;;23.88;16.65;;;;;;;;;;5013418;28;20042;-66
2022/05/12 00:39:08;;;;;;;24.67;16.08;;;;;;;;;;5013725;28;20049;-66
2022/05/12 00:41:36;;;;;;;25.13;16.25;;;;;;;;;;5013415;28;20046;-66
2022/05/12 00:44:06;;;;;;;20.88;14.32;;;;;;;;;;5013532;28;20490;-66
2022/05/12 00:46:36;;;;;;;22.65;15.05;;;;;;;;;;5013707;28;20503;-66
2022/05/12 00:49:06;;;;;;;21.75;14.52;;;;;;;;;;5013434;28;20065;-66
2022/05/12 00:51:37;;;;;;;18.52;13.50;;;;;;;;;;5013294;28;20061;-66
2022/05/12 00:54:11;;;;;;;19.10;12.50;;;;;;;;;;5013483;28;20050;-66
2022/05/12 00:56:40;;;;;;;23.13;13.15;;;;;;;;;;5013359;28;20509;-67
2022/05/12 00:59:13;;;;;;;18.50;12.88;;;;;;;;;;5013263;28;20046;-66
2022/05/12 01:01:40;;;;;;;18.52;12.60;;;;;;;;;;5013255;28;20046;-66
2022/05/12 01:04:07;;;;;;;17.13;11.88;;;;;;;;;;5013289;28;20046;-66
2022/05/12 01:06:35;;;;;;;18.27;11.88;;;;;;;;;;5013043;28;20419;-66
2022/05/12 01:09:02;;;;;;;15.80;10.85;;;;;;;;;;5013503;28;20042;-66
2022/05/12 01:11:29;;;;;;;18.85;11.07;;;;;;;;;;5012939;28;20049;-66
2022/05/12 01:14:01;;;;;;;18.17;11.27;;;;;;;;;;5012863;28;20050;-66
2022/05/12 01:16:51;;;;;;;13.10;10.75;;;;;;;;;;5013101;28;20558;-66
2022/05/12 01:19:20;;;;;;;15.43;10.52;;;;;;;;;;5008583;28;20062;-66
2022/05/12 01:21:49;;;;;;;16.65;10.70;;;;;;;;;;5012993;28;20499;-66
2022/05/12 01:24:19;;;;;;;14.63;10.63;;;;;;;;;;5012993;28;20046;-66
2022/05/12 01:26:46;;;;;;;18.73;11.95;;;;;;;;;;5012851;28;20053;-66
2022/05/12 01:29:13;;;;;;;21.27;11.07;;;;;;;;;;5012947;28;20159;-66
2022/05/12 01:31:41;;;;;;;17.30;10.48;;;;;;;;;;5012597;28;20049;-66
2022/05/12 01:34:12;;;;;;;13.48;9.68;;;;;;;;;;5012959;28;20053;-66
2022/05/12 01:36:39;;;;;;;16.10;10.07;;;;;;;;;;5012999;28;20407;-66
2022/05/12 01:39:08;;;;;;;15.75;10.38;;;;;;;;;;5012888;28;20046;-66
2022/05/12 01:41:37;;;;;;;16.13;10.63;;;;;;;;;;5012447;28;20041;-66
2022/05/12 01:44:04;;;;;;;16.42;11.10;;;;;;;;;;5012681;28;20148;-67
2022/05/12 01:46:31;;;;;;;16.58;12.48;;;;;;;;;;5012477;28;20516;-66
2022/05/12 01:48:59;;;;;;;17.35;11.63;;;;;;;;;;5012743;28;20545;-67
2022/05/12 01:51:26;;;;;;;19.17;12.30;;;;;;;;;;5013161;28;20137;-66
2022/05/12 01:53:53;;;;;;;16.35;12.73;;;;;;;;;;5012946;28;20253;-67
2022/05/12 01:56:20;;;;;;;23.35;14.60;;;;;;;;;;5012938;28;20487;-66
2022/05/12 01:58:49;;;;;;;23.02;15.57;;;;;;;;;;5012541;28;20041;-67
2022/05/12 02:01:16;;;;;;;22.38;14.75;;;;;;;;;;5012382;28;20042;-66
2022/05/12 02:03:43;;;;;;;22.98;14.90;;;;;;;;;;5012823;28;20048;-66
2022/05/12 02:06:10;;;;;;;22.33;14.88;;;;;;;;;;5012355;28;20050;-66
2022/05/12 02:08:37;;;;;;;22.00;15.40;;;;;;;;;;5012257;28;20075;-67
2022/05/12 02:11:04;;;;;;;22.63;15.43;;;;;;;;;;5012248;28;20050;-66
2022/05/12 02:13:31;;;;;;;20.48;14.02;;;;;;;;;;5012304;28;20045;-67
2022/05/12 02:15:59;;;;;;;20.48;14.68;;;;;;;;;;5012081;28;20569;-67
2022/05/12 02:18:28;;;;;;;20.42;14.80;;;;;;;;;;5012109;28;20050;-66
2022/05/12 02:20:56;;;;;;;23.50;15.35;;;;;;;;;;5012166;28;20069;-66
2022/05/12 02:23:23;;;;;;;24.77;15.07;;;;;;;;;;5012541;28;20065;-67
2022/05/12 02:25:50;;;;;;;26.02;15.90;;;;;;;;;;5012393;28;20046;-66
2022/05/12 02:28:17;;;;;;;25.58;16.45;;;;;;;;;;5012233;28;20081;-67
2022/05/12 02:30:45;;;;;;;24.65;16.35;;;;;;;;;;5013932;28;20049;-67
2022/05/12 02:33:13;;;;;;;29.25;15.32;;;;;;;;;;5016236;28;20053;-67
2022/05/12 02:35:41;;;;;;;25.02;15.23;;;;;;;;;;5015970;28;20046;-67
2022/05/12 02:38:09;;;;;;;20.10;13.35;;;;;;;;;;5015804;28;20076;-67
2022/05/12 02:40:36;;;;;;;20.35;12.93;;;;;;;;;;5015808;28;20053;-67
2022/05/12 02:43:22;;;;;;;19.95;12.48;;;;;;;;;;5015740;28;20141;-67
2022/05/12 02:45:50;;;;;;;23.05;13.05;;;;;;;;;;5015992;28;20177;-66
2022/05/12 02:48:19;;;;;;;15.70;11.13;;;;;;;;;;5016006;28;20054;-67
2022/05/12 02:50:46;;;;;;;17.73;11.13;;;;;;;;;;5015840;28;20125;-67
2022/05/12 02:53:13;;;;;;;16.40;10.95;;;;;;;;;;5015552;28;20042;-66
2022/05/12 02:55:41;;;;;;;17.52;10.88;;;;;;;;;;5015834;28;20052;-66
2022/05/12 02:58:08;;;;;;;17.08;10.10;;;;;;;;;;5015790;28;20056;-66
2022/05/12 03:00:35;;;;;;;15.75;10.05;;;;;;;;;;5015712;28;20050;-65
2022/05/12 03:03:02;;;;;;;14.77;10.02;;;;;;;;;;5015580;28;20042;-67
2022/05/12 03:05:30;;;;;;;13.70;9.85;;;;;;;;;;5015487;28;20053;-67
2022/05/12 03:07:57;;;;;;;17.05;9.95;;;;;;;;;;5015279;28;20418;-66
2022/05/12 03:10:25;;;;;;;17.50;9.52;;;;;;;;;;5015421;28;20057;-67
2022/05/12 03:12:52;;;;;;;17.10;9.52;;;;;;;;;;5015307;28;20095;-65
2022/05/12 03:15:20;;;;;;;16.05;9.73;;;;;;;;;;5015005;28;20046;-66
2022/05/12 03:17:47;;;;;;;16.30;9.73;;;;;;;;;;5014847;28;20042;-66
2022/05/12 03:20:17;;;;;;;16.15;9.57;;;;;;;;;;5015061;28;20141;-66
2022/05/12 03:22:47;;;;;;;16.13;9.65;;;;;;;;;;5015348;28;20085;-66
2022/05/12 03:25:15;;;;;;;12.33;8.67;;;;;;;;;;5015552;28;20156;-66
2022/05/12 03:27:43;;;;;;;13.25;9.30;;;;;;;;;;5015260;28;20641;-65
2022/05/12 03:30:14;;;;;;;14.43;9.15;;;;;;;;;;5014767;28;20412;-65
2022/05/12 03:32:41;;;;;;;15.73;9.60;;;;;;;;;;5014829;28;20050;-66
2022/05/12 03:35:09;;;;;;;14.80;9.20;;;;;;;;;;5015076;28;20046;-66
2022/05/12 03:37:37;;;;;;;17.10;9.70;;;;;;;;;;5014770;28;20050;-66
2022/05/12 03:40:07;;;;;;;12.85;8.55;;;;;;;;;;5014817;28;20046;-66
2022/05/12 03:42:34;;;;;;;;;;;;;;;;;;5014421;28;20068;-66
2022/05/12 03:45:00;;;;;;;12.98;8.73;;;;;;;;;;5015078;28;19921;-67
2022/05/12 03:47:29;;;;;;;16.10;9.65;;;;;;;;;;5014735;28;20049;-66
2022/05/12 03:50:00;;;;;;;13.35;8.90;;;;;;;;;;5014485;28;20057;-66
2022/05/12 03:52:28;;;;;;;17.33;9.13;;;;;;;;;;5014451;28;20049;-66
2022/05/12 03:54:55;;;;;;;15.20;8.77;;;;;;;;;;5014435;28;20052;-66
2022/05/12 03:57:28;;;;;;;13.52;8.48;;;;;;;;;;5014543;28;20412;-66
2022/05/12 03:59:56;;;;;;;14.75;8.20;;;;;;;;;;5014288;28;20084;-67
2022/05/12 04:02:24;;;;;;;15.32;8.38;;;;;;;;;;5014421;28;20419;-66
2022/05/12 04:04:52;;;;;;;13.95;8.77;;;;;;;;;;5014362;28;20405;-66
2022/05/12 04:07:21;;;;;;;15.43;8.57;;;;;;;;;;5014361;28;20054;-66
2022/05/12 04:09:48;;;;;;;12.98;8.35;;;;;;;;;;5014121;28;20050;-66
2022/05/12 04:12:16;;;;;;;17.27;9.30;;;;;;;;;;5014459;28;20053;-66
2022/05/12 04:14:44;;;;;;;13.63;9.13;;;;;;;;;;5014212;28;20054;-66
2022/05/12 04:17:13;;;;;;;14.25;8.48;;;;;;;;;;5014447;28;20521;-66
2022/05/12 04:19:40;;;;;;;10.88;7.78;;;;;;;;;;5014459;28;20049;-66
2022/05/12 04:22:07;;;;;;;16.85;8.77;;;;;;;;;;5013914;28;20050;-67
2022/05/12 04:24:34;;;;;;;12.40;8.93;;;;;;;;;;5014263;28;20046;-67
2022/05/12 04:27:01;;;;;;;14.07;8.68;;;;;;;;;;5014557;28;20495;-67
2022/05/12 04:29:28;;;;;;;15.27;8.30;;;;;;;;;;5013875;28;20052;-67
2022/05/12 04:31:57;;;;;;;15.55;8.05;;;;;;;;;;5013891;28;20046;-66
2022/05/12 04:37:08;;;;;;;15.63;8.27;;;;;;;;;;5014013;28;20520;-67
2022/05/12 04:39:37;;;;;;;19.40;8.68;;;;;;;;;;5013901;28;20049;-67
2022/05/12 04:42:04;;;;;;;24.98;8.98;;;;;;;;;;5014203;28;20056;-67
2022/05/12 04:44:31;;;;;;;13.07;8.23;;;;;;;;;;5013941;28;20137;-65
2022/05/12 04:47:00;;;;;;;14.00;8.18;;;;;;;;;;5014070;28;20049;-67
2022/05/12 04:49:28;;;;;;;14.10;8.60;;;;;;;;;;5014183;28;20050;-66
2022/05/12 04:51:57;;;;;;;13.60;8.27;;;;;;;;;;5014255;28;20057;-67
2022/05/12 04:54:24;;;;;;;12.48;8.30;;;;;;;;;;5013404;28;20053;-67
2022/05/12 04:56:51;;;;;;;14.90;8.25;;;;;;;;;;5014456;28;20510;-66
2022/05/12 04:59:19;;;;;;;15.30;8.27;;;;;;;;;;5014211;28;20046;-69
2022/05/12 05:01:46;;;;;;;16.70;8.68;;;;;;;;;;5013519;28;20050;-67
2022/05/12 05:04:14;;;;;;;14.13;7.85;;;;;;;;;;5013518;28;20079;-66
2022/05/12 05:06:41;;;;;;;12.63;7.55;;;;;;;;;;5013369;28;20057;-67
2022/05/12 05:09:08;;;;;;;14.05;8.02;;;;;;;;;;5013504;28;20056;-66
2022/05/12 05:11:37;;;;;;;12.80;7.70;;;;;;;;;;5014551;28;20123;-69
2022/05/12 05:14:05;;;;;;;15.05;9.15;;;;;;;;;;5013299;28;20533;-67
2022/05/12 05:16:32;;;;;;;11.85;8.25;;;;;;;;;;5013152;28;20192;-68
2022/05/12 05:18:59;;;;;;;12.98;7.90;;;;;;;;;;5013113;28;20073;-65
2022/05/12 05:21:27;;;;;;;15.63;8.70;;;;;;;;;;5012949;28;20052;-67
2022/05/12 05:23:54;;;;;;;13.25;9.20;;;;;;;;;;5012858;28;20054;-67
2022/05/12 05:26:21;;;;;;;15.50;8.80;;;;;;;;;;5012831;28;20049;-65
2022/05/12 05:28:48;;;;;;;13.20;8.00;;;;;;;;;;5012851;28;20416;-66
2022/05/12 05:31:16;;;;;;;13.40;8.10;;;;;;;;;;5012619;28;20112;-66
2022/05/12 05:33:43;;;;;;;12.93;7.65;;;;;;;;;;5013036;28;20407;-65
2022/05/12 05:36:10;;;;;;;13.35;7.47;;;;;;;;;;5012820;28;20396;-66
2022/05/12 05:38:39;;;;;;;13.55;8.00;;;;;;;;;;5012678;28;20140;-65
2022/05/12 05:41:07;;;;;;;16.65;8.00;;;;;;;;;;5012713;28;20045;-65
2022/05/12 05:43:34;;;;;;;15.45;8.43;;;;;;;;;;5012688;28;20060;-65
2022/05/12 05:46:01;;;;;;;14.77;8.32;;;;;;;;;;5012725;28;20042;-66
2022/05/12 05:48:28;;;;;;;15.10;8.43;;;;;;;;;;5012626;28;20060;-66
2022/05/12 05:53:56;;;;;;;13.10;9.32;;;;;;;;;;4971049;28;20047;-66
2022/05/12 05:56:23;;;;;;;15.50;8.07;;;;;;;;;;4970817;28;20050;-66
2022/05/12 05:58:50;;;;;;;12.32;7.88;;;;;;;;;;4989266;28;20050;-66
2022/05/12 06:01:18;;;;;;;12.20;7.63;;;;;;;;;;5012221;28;20046;-66
2022/05/12 06:03:45;;;;;;;13.63;7.80;;;;;;;;;;5012782;28;20049;-66
2022/05/12 06:06:13;;;;;;;14.10;7.68;;;;;;;;;;5011565;28;20061;-67
2022/05/12 06:08:40;;;;;;;14.68;8.48;;;;;;;;;;5012758;28;20488;-67
2022/05/12 06:11:09;;;;;;;13.82;8.50;;;;;;;;;;5012052;28;20100;-67
2022/05/12 06:13:36;;;;;;;19.02;9.05;;;;;;;;;;5012722;28;20049;-67
2022/05/12 06:16:05;;;;;;;14.63;7.90;;;;;;;;;;5012459;28;20049;-66
2022/05/12 06:18:32;;;;;;;16.55;8.50;;;;;;;;;;5012468;28;20062;-66
2022/05/12 06:20:59;;;;;;;16.08;8.48;;;;;;;;;;5012368;28;20046;-66
2022/05/12 06:23:26;;;;;;;14.13;7.50;;;;;;;;;;5012950;28;20540;-67
2022/05/12 06:25:55;;;;;;;14.55;8.40;;;;;;;;;;5012063;28;20054;-66
2022/05/12 06:28:23;;;;;;;16.17;8.82;;;;;;;;;;5012618;28;20053;-66
2022/05/12 06:30:50;;;;;;;12.60;7.93;;;;;;;;;;5012459;28;20446;-67
2022/05/12 06:33:18;;;;;;;16.80;8.50;;;;;;;;;;5012347;28;20046;-67
2022/05/12 06:35:47;;;;;;;14.90;9.30;;;;;;;;;;5012416;28;20042;-67
2022/05/12 06:38:14;;;;;;;20.08;8.80;;;;;;;;;;5013148;28;20050;-67
2022/05/12 06:40:41;;;;;;;19.85;8.90;;;;;;;;;;5011796;28;20042;-66
2022/05/12 06:43:09;;;;;;;15.10;8.68;;;;;;;;;;5012592;28;20049;-66
2022/05/12 06:45:37;;;;;;;13.95;8.30;;;;;;;;;;5011605;28;20053;-67
2022/05/12 06:48:05;;;;;;;14.55;8.32;;;;;;;;;;4992710;28;20096;-66
2022/05/12 06:50:32;;;;;;;17.02;9.13;;;;;;;;;;4992629;28;20046;-67
2022/05/12 06:52:59;;;;;;;12.57;8.23;;;;;;;;;;4992259;28;20046;-67
2022/05/12 06:55:29;;;;;;;12.52;8.07;;;;;;;;;;4992496;28;20218;-66
2022/05/12 06:57:56;;;;;;;16.00;8.60;;;;;;;;;;4992735;28;20054;-66
2022/05/12 07:00:24;;;;;;;16.65;8.52;;;;;;;;;;4992165;28;20051;-66
2022/05/12 07:02:53;;;;;;;20.45;9.13;;;;;;;;;;4992554;28;20495;-66
2022/05/12 07:05:24;;;;;;;14.80;8.98;;;;;;;;;;4992505;28;20050;-68
2022/05/12 07:07:51;;;;;;;13.98;8.77;;;;;;;;;;4993029;28;20077;-67
2022/05/12 07:10:20;;;;;;;14.52;9.27;;;;;;;;;;4992506;28;20141;-67
2022/05/12 07:12:47;;;;;;;19.52;8.77;;;;;;;;;;4992658;28;20149;-67
2022/05/12 07:15:15;;;;;;;13.18;8.05;;;;;;;;;;4992252;28;20133;-66
2022/05/12 07:17:43;;;;;;;11.88;8.35;;;;;;;;;;4995000;28;20047;-69
2022/05/12 07:28:28;;;;;;;14.52;8.35;;;;;;;;;;4995912;28;20104;-67
2022/05/12 07:31:02;;;;;;;17.40;8.75;;;;;;;;;;4995892;28;20399;-67
2022/05/12 07:33:29;;;;;;;16.75;8.98;;;;;;;;;;4995950;28;20050;-65
2022/05/12 07:35:57;;;;;;;13.45;8.38;;;;;;;;;;4995979;28;20129;-66
2022/05/12 07:38:25;;;;;;;14.60;8.23;;;;;;;;;;4995969;28;20054;-68
2022/05/12 07:40:53;;;;;;;14.63;9.05;;;;;;;;;;4995482;28;20104;-66
2022/05/12 07:43:20;;;;;;;12.98;8.65;;;;;;;;;;4995707;28;20415;-66
2022/05/12 07:45:47;;;;;;;15.68;8.57;;;;;;;;;;4995643;28;20065;-66
2022/05/12 07:48:14;;;;;;;15.77;8.60;;;;;;;;;;4995257;28;20065;-66
2022/05/12 07:50:42;;;;;;;13.68;8.50;;;;;;;;;;4995757;28;20050;-68
2022/05/12 07:53:10;;;;;;;16.83;9.30;;;;;;;;;;4995500;28;20121;-66
2022/05/12 07:55:37;;;;;;;12.48;8.80;;;;;;;;;;4995314;28;20047;-66
2022/05/12 07:58:06;;;;;;;14.43;8.70;;;;;;;;;;4995792;28;20420;-66
2022/05/12 08:00:33;;;;;;;16.52;10.00;;;;;;;;;;4995207;28;20078;-66
2022/05/12 08:03:01;;;;;;;13.25;8.50;;;;;;;;;;4995542;28;20042;-66
2022/05/12 08:05:28;;;;;;;15.45;8.95;;;;;;;;;;4995515;28;20082;-65
2022/05/12 08:07:56;;;;;;;12.82;8.45;;;;;;;;;;4995640;28;20042;-67
2022/05/12 08:10:25;;;;;;;12.52;8.82;;;;;;;;;;4995579;28;20058;-67
2022/05/12 08:12:53;;;;;;;11.67;8.30;;;;;;;;;;4995257;28;20104;-66
2022/05/12 08:15:21;;;;;;;15.10;9.65;;;;;;;;;;4995613;28;20108;-67
2022/05/12 08:17:49;;;;;;;14.38;9.25;;;;;;;;;;4995319;28;20411;-67
2022/05/12 08:20:16;;;;;;;13.40;8.38;;;;;;;;;;4995149;28;20054;-66
2022/05/12 08:22:43;;;;;;;14.40;8.35;;;;;;;;;;4995442;28;20470;-66
2022/05/12 08:25:11;;;;;;;15.55;8.32;;;;;;;;;;4995013;28;20053;-67
2022/05/12 08:27:40;;;;;;;14.60;8.85;;;;;;;;;;4994376;28;20058;-65
2022/05/12 08:30:11;;;;;;;13.95;9.38;;;;;;;;;;4994894;28;20129;-67
2022/05/12 08:32:39;;;;;;;17.63;10.15;;;;;;;;;;4995129;28;20405;-67
2022/05/12 08:35:07;;;;;;;16.75;9.30;;;;;;;;;;4995549;28;20176;-66
2022/05/12 08:37:34;;;;;;;16.02;9.38;;;;;;;;;;4994500;28;20513;-65
2022/05/12 08:40:02;;;;;;;15.38;9.10;;;;;;;;;;4994194;28;20054;-65
2022/05/12 08:42:34;;;;;;;13.52;9.02;;;;;;;;;;4994213;28;20392;-66
2022/05/12 08:45:05;;;;;;;14.65;9.23;;;;;;;;;;4994423;28;20050;-66
2022/05/12 08:47:34;;;;;;;15.02;9.23;;;;;;;;;;4994108;28;20517;-66
2022/05/12 08:50:03;;;;;;;16.40;10.18;;;;;;;;;;4994387;28;20050;-66
2022/05/12 08:52:38;;;;;;;18.42;10.23;;;;;;;;;;4993991;28;20532;-66
2022/05/12 08:55:14;;;;;;;19.63;10.05;;;;;;;;;;4994313;28;20046;-66
2022/05/12 08:57:47;;;;;;;17.65;9.75;;;;;;;;;;4994456;28;20508;-66
2022/05/12 09:00:19;;;;;;;21.98;10.20;;;;;;;;;;4994506;28;20046;-66
2022/05/12 09:02:58;;;;;;;15.88;9.75;;;;;;;;;;4994424;28;20556;-66
2022/05/12 09:05:29;;;;;;;12.45;9.73;;;;;;;;;;4994334;28;20050;-66
2022/05/12 09:08:04;;;;;;;15.93;9.63;;;;;;;;;;4994014;28;20134;-66
2022/05/12 09:10:41;;;;;;;13.30;10.05;;;;;;;;;;4993846;28;20046;-66
2022/05/12 09:13:14;;;;;;;17.55;10.40;;;;;;;;;;4994473;28;20046;-66
2022/05/12 09:15:50;;;;;;;17.25;10.60;;;;;;;;;;4994304;28;20516;-65
2022/05/12 09:18:18;;;;;;;18.70;10.52;;;;;;;;;;4993939;28;20046;-65
2022/05/12 09:20:46;;;;;;;15.30;10.02;;;;;;;;;;4994192;28;20054;-66
2022/05/12 09:23:13;;;;;;;19.02;11.00;;;;;;;;;;4994084;28;20064;-66
2022/05/12 09:25:43;;;;;;;14.70;9.85;;;;;;;;;;4993461;28;20047;-66
2022/05/12 09:28:26;;;;;;;19.58;10.95;;;;;;;;;;4993787;28;20078;-66
2022/05/12 09:30:56;;;;;;;18.13;11.18;;;;;;;;;;4993659;28;20058;-66
2022/05/12 09:33:25;;;;;;;15.77;10.45;;;;;;;;;;4993666;28;20130;-66
2022/05/12 09:35:56;;;;;;;18.08;11.23;;;;;;;;;;4993481;28;20053;-67
2022/05/12 09:38:26;;;;;;;15.32;11.30;;;;;;;;;;4993225;28;20109;-66
2022/05/12 09:40:54;;;;;;;16.08;10.68;;;;;;;;;;4992273;28;20046;-66
2022/05/12 09:43:26;;;;;;;17.48;10.85;;;;;;;;;;4993162;28;20053;-66
2022/05/12 09:46:14;;;;;;;23.92;11.77;;;;;;;;;;4993499;28;20488;-66
2022/05/12 09:48:41;;;;;;;16.80;10.98;;;;;;;;;;4993657;28;20073;-66
2022/05/12 09:51:29;;;;;;;18.10;11.50;;;;;;;;;;4993225;28;20069;-66
2022/05/12 09:54:15;;;;;;;21.00;11.85;;;;;;;;;;4993488;28;20088;-67
2022/05/12 09:56:46;;;;;;;20.38;11.18;;;;;;;;;;4993146;28;20050;-66
2022/05/12 09:59:23;;;;;;;14.20;10.18;;;;;;;;;;4993728;28;20507;-66
2022/05/12 10:01:54;;;;;;;18.60;11.23;;;;;;;;;;4993551;28;20384;-66
2022/05/12 10:10:05;;;;;;;22.17;11.85;;;;;;;;;;4992759;28;20053;-68
2022/05/12 10:12:38;;;;;;;21.63;11.55;;;;;;;;;;4992627;28;20133;-69
2022/05/12 10:15:20;;;;;;;17.13;11.68;;;;;;;;;;4993011;28;20061;-68
2022/05/12 10:17:50;;;;;;;18.40;10.88;;;;;;;;;;4993568;28;20056;-68
2022/05/12 10:20:19;;;;;;;20.80;12.15;;;;;;;;;;4992967;28;20050;-68
2022/05/12 10:22:54;;;;;;;21.90;11.93;;;;;;;;;;4993367;28;20054;-68
2022/05/12 10:25:30;;;;;;;18.90;11.32;;;;;;;;;;4992210;28;20364;-68
2022/05/12 10:28:03;;;;;;;26.27;12.50;;;;;;;;;;4992925;28;20102;-68
2022/05/12 10:30:42;;;;;;;19.05;12.10;;;;;;;;;;4992455;28;20047;-68
2022/05/12 10:33:38;;;;;;;19.35;10.93;;;;;;;;;;4992606;28;20078;-68
2022/05/12 10:36:22;;;;;;;18.77;11.45;;;;;;;;;;4990886;28;20060;-68
2022/05/12 10:38:58;;;;;;;17.90;11.68;;;;;;;;;;4992631;28;20097;-68
2022/05/12 10:41:33;;;;;;;18.05;11.30;;;;;;;;;;4992553;28;20073;-68
2022/05/12 10:44:21;;;;;;;19.38;11.82;;;;;;;;;;4992802;28;20142;-69
2022/05/12 10:46:57;;;;;;;16.02;10.63;;;;;;;;;;5002706;28;20042;-67
2022/05/12 10:49:33;;;;;;;17.08;11.07;;;;;;;;;;5012233;28;20060;-68
2022/05/12 10:52:14;;;;;;;18.20;10.65;;;;;;;;;;5014345;28;20053;-68
2022/05/12 10:54:57;;;;;;;16.65;11.52;;;;;;;;;;5015997;28;20049;-68
2022/05/12 10:57:35;;;;;;;18.40;11.77;;;;;;;;;;5015486;28;20060;-68
2022/05/12 11:00:24;;;;;;;15.45;10.40;;;;;;;;;;5015605;28;20072;-68
2022/05/12 11:02:55;;;;;;;19.67;11.07;;;;;;;;;;5015557;28;20053;-68
2022/05/12 11:05:34;;;;;;;14.68;11.13;;;;;;;;;;5016012;28;20120;-68
2022/05/12 11:08:06;;;;;;;15.65;9.95;;;;;;;;;;5015944;28;20499;-68
2022/05/12 11:10:39;;;;;;;19.25;10.82;;;;;;;;;;5016190;28;20058;-68
2022/05/12 11:13:13;;;;;;;17.23;11.05;;;;;;;;;;5016234;28;20573;-69
2022/05/12 11:15:54;;;;;;;15.52;10.38;;;;;;;;;;5015931;28;20049;-69
2022/05/12 11:18:27;;;;;;;18.50;10.73;;;;;;;;;;5015866;28;20054;-68
2022/05/12 11:21:02;;;;;;;19.58;12.30;;;;;;;;;;5015580;28;20152;-69
2022/05/12 11:23:44;;;;;;;26.73;12.90;;;;;;;;;;5015545;28;20054;-68
2022/05/12 11:26:19;;;;;;;18.65;11.60;;;;;;;;;;5015372;28;20439;-69
2022/05/12 11:31:47;;;;;;;19.30;11.63;;;;;;;;;;5015252;28;20100;-68
2022/05/12 11:34:18;;;;;;;18.88;11.15;;;;;;;;;;5015079;28;20129;-69
2022/05/12 11:36:49;;;;;;;25.58;13.57;;;;;;;;;;5015424;28;20052;-69
2022/05/12 11:39:29;;;;;;;17.08;11.93;;;;;;;;;;5015269;28;20052;-68
2022/05/12 11:42:12;;;;;;;19.83;12.15;;;;;;;;;;5015302;28;20050;-68
2022/05/12 11:44:46;;;;;;;18.30;11.88;;;;;;;;;;5013326;28;20062;-68
2022/05/12 11:49:58;;;;;;;21.33;11.73;;;;;;;;;;5012821;28;20073;-63
2022/05/12 11:52:38;;;;;;;18.67;12.10;;;;;;;;;;4995093;28;20058;-63
2022/05/12 11:55:08;;;;;;;16.42;11.55;;;;;;;;;;4994873;28;20054;-63
2022/05/12 11:57:40;;;;;;;24.65;12.35;;;;;;;;;;4994871;28;20046;-63
2022/05/12 12:00:12;;;;;;;19.80;11.90;;;;;;;;;;4994759;28;20050;-63
2022/05/12 12:02:49;;;;;;;18.40;11.23;;;;;;;;;;4994255;28;20054;-63
2022/05/12 12:06:01;;;;;;;14.85;10.82;;;;;;;;;;4994839;28;20050;-63
2022/05/12 12:08:46;;;;;;;15.70;11.15;;;;;;;;;;4959565;28;20065;-63
2022/05/12 12:11:29;;;;;;;18.30;12.07;;;;;;;;;;4993441;28;20478;-63
2022/05/12 12:13:59;;;;;;;19.67;12.07;;;;;;;;;;4994863;28;20058;-64
2022/05/12 12:16:28;;;;;;;15.15;11.15;;;;;;;;;;4994759;28;20492;-63
2022/05/12 12:19:04;;;;;;;18.50;12.32;;;;;;;;;;4994459;28;20043;-63
2022/05/12 12:21:53;;;;;;;14.73;11.60;;;;;;;;;;4994449;28;20117;-63
2022/05/12 12:24:55;;;;;;;19.42;11.93;;;;;;;;;;4994599;28;20460;-64
2022/05/12 12:27:55;;;;;;;19.95;12.25;;;;;;;;;;4994427;28;20050;-63
2022/05/12 12:30:38;;;;;;;17.30;11.30;;;;;;;;;;4994400;28;20532;-63
2022/05/12 12:33:16;;;;;;;16.23;11.57;;;;;;;;;;4994305;28;20057;-63
2022/05/12 12:35:54;;;;;;;17.55;11.00;;;;;;;;;;4994414;28;20050;-63
2022/05/12 12:38:41;;;;;;;17.38;12.85;;;;;;;;;;4994691;28;20506;-63
2022/05/12 12:41:10;;;;;;;16.23;11.25;;;;;;;;;;4993861;28;20492;-63
2022/05/12 12:43:39;;;;;;;15.55;12.18;;;;;;;;;;4993896;28;20129;-63
2022/05/12 12:46:17;;;;;;;17.50;12.23;;;;;;;;;;4993927;28;20416;-63
2022/05/12 12:48:54;;;;;;;17.83;12.55;;;;;;;;;;4993829;28;20050;-63
2022/05/12 12:51:29;;;;;;;20.63;11.68;;;;;;;;;;4993934;28;20058;-63
2022/05/12 12:56:42;;;;;;;17.00;11.75;;;;;;;;;;4993738;28;20053;-63
2022/05/12 12:59:15;;;;;;;15.68;11.30;;;;;;;;;;4993771;28;20407;-63
2022/05/12 13:01:50;;;;;;;17.23;11.50;;;;;;;;;;4993428;28;20058;-63
2022/05/12 13:04:21;;;;;;;15.85;11.93;;;;;;;;;;4993676;28;20054;-63
2022/05/12 13:06:54;;;;;;;17.67;11.07;;;;;;;;;;4993667;28;20116;-63
2022/05/12 13:09:26;;;;;;;17.60;11.68;;;;;;;;;;4993658;28;20050;-62
2022/05/12 13:12:08;;;;;;;15.25;12.52;;;;;;;;;;4993524;28;20062;-62
2022/05/12 13:14:37;;;;;;;15.77;11.98;;;;;;;;;;4993688;28;20582;-63
2022/05/12 13:17:07;;;;;;;16.02;10.82;;;;;;;;;;4993638;28;20058;-62
2022/05/12 13:19:39;;;;;;;;;;;;;;;;;;4993726;28;20072;-63
2022/05/12 13:22:07;;;;;;;18.30;11.50;;;;;;;;;;4993440;28;19941;-64
2022/05/12 13:24:36;;;;;;;17.63;11.00;;;;;;;;;;4993147;28;20085;-64
2022/05/12 13:27:05;;;;;;;17.58;11.27;;;;;;;;;;4993480;28;20101;-63
2022/05/12 13:29:35;;;;;;;14.00;10.82;;;;;;;;;;4993397;28;20062;-64
2022/05/12 13:32:06;;;;;;;13.43;10.65;;;;;;;;;;4993308;28;20056;-62
2022/05/12 13:34:35;;;;;;;13.57;10.73;;;;;;;;;;4993408;28;20483;-63
2022/05/12 13:37:14;;;;;;;;;;;;;;;;;;4993919;28;20057;-63
2022/05/12 13:39:49;;;;;;;11.40;10.20;;;;;;;;;;4993147;28;19928;-63
2022/05/12 13:42:19;;;;;;;14.50;10.05;;;;;;;;;;4993108;28;20441;-63
2022/05/12 13:44:51;;;;;;;13.95;10.00;;;;;;;;;;4992084;28;20078;-63
2022/05/12 13:47:25;;;;;;;15.93;10.32;;;;;;;;;;4979039;28;20105;-63
2022/05/12 13:49:53;;;;;;;12.90;10.75;;;;;;;;;;4973534;28;20047;-63
2022/05/12 13:52:23;;;;;;;13.68;10.30;;;;;;;;;;4973583;28;20133;-64
2022/05/12 13:55:06;;;;;;;;;;;;;;;;;;4973831;28;20065;-63
2022/05/12 13:57:36;;;;;;;14.90;10.30;;;;;;;;;;4973503;28;20016;-63
2022/05/12 14:00:20;;;;;;;14.40;10.20;;;;;;;;;;4973612;28;20511;-63
2022/05/12 14:02:48;;;;;;;13.27;10.30;;;;;;;;;;4973396;28;20046;-63
2022/05/12 14:05:23;;;;;;;14.05;10.65;;;;;;;;;;4973715;28;20065;-63
2022/05/12 14:08:07;;;;;;;13.48;10.30;;;;;;;;;;4973562;28;20057;-63
2022/05/12 14:10:37;;;;;;;16.98;11.25;;;;;;;;;;4973347;28;20389;-63
2022/05/12 14:21:23;;;;;;;14.13;10.10;;;;;;;;;;4973237;28;20050;-63
2022/05/12 14:23:50;;;;;;;11.82;9.77;;;;;;;;;;4973144;28;20087;-63
2022/05/12 14:26:17;;;;;;;14.65;10.23;;;;;;;;;;4974314;28;20050;-63
2022/05/12 14:28:44;;;;;;;13.52;9.80;;;;;;;;;;4977242;28;20053;-63
2022/05/12 14:31:12;;;;;;;11.55;8.63;;;;;;;;;;4977088;28;20058;-63
2022/05/12 14:33:39;;;;;;;14.60;9.70;;;;;;;;;;4977478;28;20412;-63
2022/05/12 14:36:06;;;;;;;15.63;8.98;;;;;;;;;;4977067;28;20093;-63
2022/05/12 14:38:35;;;;;;;12.98;8.88;;;;;;;;;;4977355;28;20137;-63
2022/05/12 14:41:02;;;;;;;11.95;9.00;;;;;;;;;;4976809;28;20145;-63
2022/05/12 14:43:29;;;;;;;13.25;8.57;;;;;;;;;;4977082;28;20126;-63
2022/05/12 14:45:56;;;;;;;13.63;9.30;;;;;;;;;;4976984;28;20416;-63
2022/05/12 14:48:25;;;;;;;15.52;9.95;;;;;;;;;;4976895;28;20050;-63
2022/05/12 14:50:53;;;;;;;13.68;9.18;;;;;;;;;;4977384;28;20094;-63
2022/05/12 14:53:20;;;;;;;19.75;9.07;;;;;;;;;;4976980;28;20050;-62
2022/05/12 14:55:48;;;;;;;13.10;10.13;;;;;;;;;;4976623;28;20051;-62
2022/05/12 14:58:15;;;;;;;13.82;8.57;;;;;;;;;;4976639;28;20055;-63
2022/05/12 15:00:42;;;;;;;10.52;8.50;;;;;;;;;;4976487;28;20053;-63
2022/05/12 15:03:11;;;;;;;13.63;9.13;;;;;;;;;;4976683;28;20480;-62
2022/05/12 15:05:38;;;;;;;12.57;9.35;;;;;;;;;;4976404;28;20053;-63
2022/05/12 15:08:05;;;;;;;12.55;8.93;;;;;;;;;;4976519;28;20082;-63
2022/05/12 15:10:32;;;;;;;14.20;8.85;;;;;;;;;;4976402;28;20485;-63
2022/05/12 15:13:01;;;;;;;10.95;8.25;;;;;;;;;;4976494;28;20054;-63
2022/05/12 15:15:29;;;;;;;10.43;8.18;;;;;;;;;;4976537;28;20512;-63
2022/05/12 15:17:56;;;;;;;11.53;8.83;;;;;;;;;;4976385;28;20145;-63
2022/05/12 15:20:24;;;;;;;12.52;9.00;;;;;;;;;;4976218;28;20047;-62